createdAt,value
2018-04-26T00:02:00.704Z,79.28
2018-04-26T00:04:28.226Z,78.48
2018-04-26T00:06:55.758Z,78.12
2018-04-26T00:09:23.275Z,78.15
2018-04-26T00:11:50.747Z,77.54
2018-04-26T00:14:18.247Z,76.89
2018-04-26T00:16:45.814Z,76.81
2018-04-26T00:19:13.303Z,75.90
2018-04-26T00:21:40.808Z,76.55
2018-04-26T00:24:08.292Z,76.65
2018-04-26T00:26:35.773Z,77.12
2018-04-26T00:29:03.251Z,77.63
2018-04-26T00:31:30.749Z,77.67
2018-04-26T00:33:58.216Z,77.31
2018-04-26T00:36:25.706Z,76.59
2018-04-26T00:38:53.268Z,76.18
2018-04-26T00:41:20.756Z,75.78
2018-04-26T00:43:48.241Z,75.88
2018-04-26T00:46:15.733Z,76.30
2018-04-26T00:48:43.272Z,75.95
2018-04-26T00:51:10.802Z,75.17
2018-04-26T00:53:38.427Z,74.41
2018-04-26T00:56:05.913Z,74.57
2018-04-26T00:58:33.408Z,75.40
2018-04-26T01:01:00.979Z,75.03
2018-04-26T01:03:28.479Z,75.44
2018-04-26T01:05:56.012Z,75.05
2018-04-26T01:08:23.501Z,74.82
2018-04-26T01:10:50.964Z,74.01
2018-04-26T01:13:18.433Z,74.61
2018-04-26T01:15:46.074Z,74.11
2018-04-26T01:18:13.588Z,73.96
2018-04-26T01:20:41.094Z,74.79
2018-04-26T01:23:08.638Z,72.92
2018-04-26T01:25:36.132Z,73.32
2018-04-26T01:28:03.620Z,72.96
2018-04-26T01:30:31.104Z,72.93
2018-04-26T01:32:58.583Z,72.72
2018-04-26T01:35:26.041Z,73.00
2018-04-26T01:37:53.562Z,71.68
2018-04-26T01:40:21.078Z,70.88
2018-04-26T01:42:48.628Z,71.78
2018-04-26T01:45:16.044Z,71.23
2018-04-26T01:47:43.528Z,71.52
2018-04-26T01:50:11.035Z,72.09
2018-04-26T01:52:38.556Z,71.46
2018-04-26T01:55:06.068Z,71.53
2018-04-26T01:57:33.596Z,70.46
2018-04-26T02:00:01.318Z,70.59
2018-04-26T02:02:28.837Z,69.19
2018-04-26T02:04:56.419Z,68.95
2018-04-26T02:07:24.058Z,68.64
2018-04-26T02:09:51.549Z,68.24
2018-04-26T02:12:19.039Z,68.86
2018-04-26T02:14:46.525Z,68.79
2018-04-26T02:17:14.023Z,70.17
2018-04-26T02:19:41.511Z,70.31
2018-04-26T02:22:09.047Z,70.14
2018-04-26T02:24:36.537Z,70.37
2018-04-26T02:27:04.053Z,69.98
2018-04-26T02:29:31.539Z,70.80
2018-04-26T02:31:59.012Z,70.72
2018-04-26T02:34:26.528Z,71.00
2018-04-26T02:36:54.036Z,71.64
2018-04-26T02:39:21.525Z,71.75
2018-04-26T02:41:48.998Z,71.70
2018-04-26T02:44:16.495Z,72.50
2018-04-26T02:46:44.102Z,72.80
2018-04-26T02:49:11.607Z,72.04
2018-04-26T02:51:39.311Z,71.68
2018-04-26T02:54:06.837Z,72.28
2018-04-26T02:56:34.363Z,71.98
2018-04-26T02:59:01.838Z,72.47
2018-04-26T03:01:29.399Z,71.60
2018-04-26T03:03:56.897Z,71.59
2018-04-26T03:06:24.433Z,70.57
2018-04-26T03:08:51.971Z,70.88
2018-04-26T03:11:19.466Z,71.04
2018-04-26T03:13:46.967Z,71.91
2018-04-26T03:16:14.451Z,72.64
2018-04-26T03:18:41.955Z,72.73
2018-04-26T03:21:09.487Z,73.04
2018-04-26T03:23:36.979Z,72.75
2018-04-26T03:26:04.476Z,72.91
2018-04-26T03:28:31.982Z,73.03
2018-04-26T03:30:59.570Z,73.40
2018-04-26T03:33:26.982Z,73.40
2018-04-26T03:35:54.531Z,73.70
2018-04-26T03:38:22.060Z,72.51
2018-04-26T03:40:49.578Z,73.10
2018-04-26T03:43:17.071Z,73.53
2018-04-26T03:45:44.565Z,73.33
2018-04-26T03:48:12.075Z,73.55
2018-04-26T03:50:39.677Z,73.81
2018-04-26T03:53:07.243Z,73.43
2018-04-26T03:55:34.732Z,73.73
2018-04-26T03:58:02.218Z,74.17
2018-04-26T04:00:41.691Z,74.29
2018-04-26T04:03:21.106Z,73.11
2018-04-26T04:06:11.552Z,73.79
2018-04-26T04:08:39.044Z,73.31
2018-04-26T04:11:06.549Z,73.59
2018-04-26T04:13:34.226Z,73.48
2018-04-26T04:16:01.730Z,73.16
2018-04-26T04:18:29.241Z,73.55
2018-04-26T04:20:56.723Z,72.91
2018-04-26T04:23:24.204Z,73.26
2018-04-26T04:25:51.717Z,73.80
2018-04-26T04:28:19.196Z,72.67
2018-04-26T04:30:46.670Z,72.12
2018-04-26T04:33:14.159Z,72.75
2018-04-26T04:35:41.717Z,72.49
2018-04-26T04:38:09.195Z,72.82
2018-04-26T04:40:36.702Z,72.62
2018-04-26T04:43:04.184Z,72.26
2018-04-26T04:45:31.724Z,71.70
2018-04-26T04:47:59.215Z,72.03
2018-04-26T04:50:26.712Z,70.92
2018-04-26T04:52:54.220Z,71.27
2018-04-26T04:55:21.744Z,70.14
2018-04-26T04:57:49.316Z,69.54
2018-04-26T05:00:16.790Z,68.64
2018-04-26T05:02:44.288Z,69.21
2018-04-26T05:05:11.791Z,68.61
2018-04-26T05:07:39.335Z,68.94
2018-04-26T05:10:06.837Z,69.41
2018-04-26T05:12:34.309Z,69.15
2018-04-26T05:15:01.824Z,68.07
2018-04-26T05:17:29.402Z,65.53
2018-04-26T05:19:56.899Z,66.52
2018-04-26T05:22:24.418Z,64.68
2018-04-26T05:24:51.916Z,65.23
2018-04-26T05:27:19.414Z,65.97
2018-04-26T05:29:46.877Z,64.28
2018-04-26T05:32:14.344Z,64.52
2018-04-26T05:34:41.885Z,64.41
2018-04-26T05:37:09.381Z,63.65
2018-04-26T05:39:36.886Z,62.99
2018-04-26T05:42:04.361Z,63.27
2018-04-26T05:44:31.867Z,62.64
2018-04-26T05:46:59.350Z,63.02
2018-04-26T05:49:26.860Z,62.93
2018-04-26T05:51:58.657Z,63.24
2018-04-26T05:54:26.145Z,63.20
2018-04-26T05:56:53.638Z,63.79
2018-04-26T05:59:21.137Z,63.23
2018-04-26T06:01:48.613Z,63.88
2018-04-26T06:04:16.105Z,63.05
2018-04-26T06:06:43.570Z,61.61
2018-04-26T06:09:11.073Z,61.75
2018-04-26T06:11:38.574Z,61.96
2018-04-26T06:14:06.220Z,61.63
2018-04-26T06:16:33.709Z,60.88
2018-04-26T06:19:01.206Z,60.32
2018-04-26T06:21:28.688Z,59.36
2018-04-26T06:23:56.173Z,58.43
2018-04-26T06:26:23.660Z,57.17
2018-04-26T06:28:51.253Z,56.91
2018-04-26T06:31:18.793Z,55.83
2018-04-26T06:33:46.299Z,55.24
2018-04-26T06:36:13.789Z,55.12
2018-04-26T06:38:41.288Z,55.03
2018-04-26T06:41:08.805Z,55.52
2018-04-26T06:43:36.285Z,56.12
2018-04-26T06:46:03.762Z,54.97
2018-04-26T06:48:31.270Z,55.61
2018-04-26T06:50:58.774Z,55.95
2018-04-26T06:53:26.356Z,55.86
2018-04-26T06:55:53.800Z,57.25
2018-04-26T06:58:21.298Z,57.34
2018-04-26T07:00:48.787Z,56.83
2018-04-26T07:03:16.279Z,57.42
2018-04-26T07:05:43.787Z,57.55
2018-04-26T07:08:11.288Z,58.28
2018-04-26T07:10:38.798Z,58.50
2018-04-26T07:13:06.291Z,57.74
2018-04-26T07:15:33.783Z,57.82
2018-04-26T07:18:01.279Z,56.78
2018-04-26T07:20:28.739Z,56.37
2018-04-26T07:22:56.225Z,57.16
2018-04-26T07:25:23.702Z,57.22
2018-04-26T07:27:51.217Z,57.31
2018-04-26T07:30:18.689Z,57.89
2018-04-26T07:32:46.168Z,57.76
2018-04-26T07:35:13.661Z,56.90
2018-04-26T07:37:41.147Z,56.84
2018-04-26T07:40:08.648Z,57.96
2018-04-26T07:42:36.283Z,60.12
2018-04-26T07:45:03.785Z,61.13
2018-04-26T07:47:31.351Z,62.05
2018-04-26T07:49:58.838Z,64.00
2018-04-26T07:52:26.328Z,64.12
2018-04-26T07:54:53.870Z,63.20
2018-04-26T07:57:21.385Z,63.64
2018-04-26T07:59:48.883Z,63.23
2018-04-26T08:02:16.388Z,63.55
2018-04-26T08:04:43.881Z,62.28
2018-04-26T08:07:11.382Z,60.66
2018-04-26T08:09:38.902Z,60.04
2018-04-26T08:12:06.570Z,58.26
2018-04-26T08:14:34.032Z,57.96
2018-04-26T08:17:01.519Z,57.56
2018-04-26T08:19:29.856Z,57.66
2018-04-26T08:21:57.355Z,57.63
2018-04-26T08:24:24.928Z,57.02
2018-04-26T08:26:52.426Z,56.23
2018-04-26T08:29:20.125Z,55.82
2018-04-26T08:31:47.714Z,53.94
2018-04-26T08:34:15.195Z,54.03
2018-04-26T08:36:42.687Z,53.78
2018-04-26T08:39:10.192Z,54.96
2018-04-26T08:41:37.704Z,54.78
2018-04-26T08:44:05.214Z,53.84
2018-04-26T08:46:32.703Z,54.76
2018-04-26T08:49:00.219Z,54.96
2018-04-26T08:51:27.709Z,54.75
2018-04-26T08:53:55.192Z,55.69
2018-04-26T08:56:22.761Z,54.54
2018-04-26T08:58:50.292Z,53.77
2018-04-26T09:01:17.791Z,53.69
2018-04-26T09:03:45.296Z,53.33
2018-04-26T09:06:12.827Z,53.55
2018-04-26T09:08:40.328Z,52.98
2018-04-26T09:11:07.858Z,52.99
2018-04-26T09:13:35.356Z,52.44
2018-04-26T09:16:02.855Z,52.48
2018-04-26T09:18:30.337Z,53.28
2018-04-26T09:20:57.825Z,54.54
2018-04-26T09:23:25.326Z,52.27
2018-04-26T09:25:52.827Z,52.22
2018-04-26T09:28:20.347Z,49.90
2018-04-26T09:30:47.855Z,49.80
2018-04-26T09:33:15.356Z,48.70
2018-04-26T09:35:42.860Z,47.67
2018-04-26T09:38:10.370Z,47.23
2018-04-26T09:40:37.856Z,46.19
2018-04-26T09:43:05.352Z,46.34
2018-04-26T09:45:32.822Z,44.42
2018-04-26T09:48:00.372Z,44.36
2018-04-26T09:50:27.858Z,43.77
2018-04-26T09:52:55.323Z,43.08
2018-04-26T09:55:22.841Z,41.71
2018-04-26T09:57:50.385Z,41.13
2018-04-26T10:00:23.753Z,41.72
2018-04-26T10:02:51.231Z,39.83
2018-04-26T10:05:18.723Z,39.74
2018-04-26T10:07:46.204Z,38.99
2018-04-26T10:10:26.777Z,40.34
2018-04-26T10:12:54.330Z,40.39
2018-04-26T10:15:40.192Z,40.40
2018-04-26T10:18:15.591Z,39.38
2018-04-26T10:21:04.100Z,36.72
2018-04-26T10:23:33.998Z,39.30
2018-04-26T10:26:01.665Z,39.56
2018-04-26T10:28:29.159Z,39.62
2018-04-26T10:30:56.877Z,39.07
2018-04-26T10:33:24.363Z,38.65
2018-04-26T10:35:51.873Z,36.86
2018-04-26T10:38:19.411Z,40.01
2018-04-26T10:40:46.916Z,41.14
2018-04-26T10:43:14.413Z,40.60
2018-04-26T10:45:41.941Z,39.70
2018-04-26T10:48:09.533Z,40.35
2018-04-26T10:50:37.035Z,39.71
2018-04-26T10:53:04.588Z,40.37
2018-04-26T10:55:32.062Z,41.17
2018-04-26T10:57:59.563Z,39.38
2018-04-26T11:00:27.076Z,41.02
2018-04-26T11:02:54.612Z,38.99
2018-04-26T11:05:22.128Z,39.24
2018-04-26T11:07:49.616Z,38.45
2018-04-26T11:10:17.108Z,36.51
2018-04-26T11:12:44.625Z,35.96
2018-04-26T11:15:12.170Z,35.22
2018-04-26T11:17:39.676Z,34.09
2018-04-26T11:20:07.189Z,33.08
2018-04-26T11:22:34.873Z,32.50
2018-04-26T11:25:02.376Z,32.47
2018-04-26T11:27:29.868Z,32.13
2018-04-26T11:29:57.482Z,32.14
2018-04-26T11:32:25.067Z,33.60
2018-04-26T11:34:52.625Z,32.43
2018-04-26T11:37:20.196Z,31.64
2018-04-26T11:39:47.741Z,28.48
2018-04-26T11:42:15.316Z,28.61
2018-04-26T11:44:42.808Z,28.07
2018-04-26T11:47:10.299Z,24.15
2018-04-26T11:49:37.828Z,25.17
2018-04-26T11:52:05.340Z,25.20
2018-04-26T11:54:32.902Z,21.51
2018-04-26T11:57:00.441Z,20.94
2018-04-26T11:59:28.058Z,21.69
2018-04-26T12:01:55.562Z,23.17
2018-04-26T12:04:23.059Z,20.73
2018-04-26T12:06:50.561Z,20.73
2018-04-26T12:09:18.072Z,24.66
2018-04-26T12:11:45.565Z,28.17
2018-04-26T12:14:13.042Z,30.13
2018-04-26T12:16:40.557Z,30.74
2018-04-26T12:19:08.162Z,30.16
2018-04-26T12:21:35.660Z,30.69
2018-04-26T12:24:03.176Z,30.36
2018-04-26T12:26:30.673Z,28.72
2018-04-26T12:28:58.151Z,28.44
2018-04-26T12:31:25.720Z,22.58
2018-04-26T12:33:53.232Z,18.89
2018-04-26T12:36:20.717Z,19.42
2018-04-26T12:38:48.193Z,22.36
2018-04-26T12:41:15.872Z,25.78
2018-04-26T12:43:43.391Z,21.93
2018-04-26T12:46:10.908Z,19.88
2018-04-26T12:48:38.416Z,18.53
2018-04-26T12:51:05.924Z,22.06
2018-04-26T12:53:33.425Z,23.38
2018-04-26T12:56:00.926Z,21.71
2018-04-26T12:58:28.560Z,24.26
2018-04-26T13:00:56.041Z,23.46
2018-04-26T13:03:23.534Z,21.51
2018-04-26T13:05:51.037Z,17.39
2018-04-26T13:08:18.534Z,15.65
2018-04-26T13:10:46.044Z,14.71
2018-04-26T13:13:13.630Z,14.67
2018-04-26T13:15:41.133Z,13.74
2018-04-26T13:18:08.639Z,14.01
2018-04-26T13:20:36.158Z,17.86
2018-04-26T13:23:03.672Z,17.51
2018-04-26T13:25:31.230Z,14.75
2018-04-26T13:27:58.834Z,13.14
2018-04-26T13:30:26.399Z,14.15
2018-04-26T13:32:53.885Z,17.73
2018-04-26T13:35:21.408Z,16.96
2018-04-26T13:37:48.921Z,14.68
2018-04-26T13:40:16.433Z,13.77
2018-04-26T13:42:44.071Z,15.07
2018-04-26T13:45:11.697Z,14.64
2018-04-26T13:47:39.201Z,17.78
2018-04-26T13:50:06.759Z,20.41
2018-04-26T13:52:34.268Z,22.08
2018-04-26T13:55:01.818Z,18.33
2018-04-26T13:57:29.575Z,16.64
2018-04-26T13:59:57.091Z,18.35
2018-04-26T14:02:24.613Z,16.01
2018-04-26T14:04:52.105Z,14.25
2018-04-26T14:07:19.605Z,12.58
2018-04-26T14:09:47.139Z,13.41
2018-04-26T14:12:14.668Z,12.64
2018-04-26T14:14:42.171Z,13.72
2018-04-26T14:17:09.676Z,13.79
2018-04-26T14:19:39.298Z,13.34
2018-04-26T14:22:06.838Z,12.52
2018-04-26T14:24:34.267Z,12.58
2018-04-26T14:27:01.765Z,14.09
2018-04-26T14:29:29.298Z,13.78
2018-04-26T14:31:56.783Z,13.99
2018-04-26T14:34:24.282Z,14.88
2018-04-26T14:36:51.903Z,14.36
2018-04-26T14:39:19.420Z,13.08
2018-04-26T14:41:46.918Z,13.29
2018-04-26T14:44:14.394Z,13.40
2018-04-26T14:46:42.098Z,13.56
2018-04-26T14:49:09.616Z,14.14
2018-04-26T14:51:37.361Z,14.26
2018-04-26T14:54:04.851Z,14.21
2018-04-26T14:56:32.636Z,13.58
2018-04-26T14:59:00.209Z,17.25
2018-04-26T15:01:27.807Z,16.34
2018-04-26T15:03:55.439Z,14.37
2018-04-26T15:06:22.946Z,13.22
2018-04-26T15:08:50.435Z,14.91
2018-04-26T15:11:17.944Z,13.16
2018-04-26T15:13:45.916Z,14.28
2018-04-26T15:16:13.415Z,12.42
2018-04-26T15:18:41.641Z,13.43
2018-04-26T15:21:09.131Z,14.72
2018-04-26T15:23:37.138Z,16.48
2018-04-26T15:26:04.634Z,17.05
2018-04-26T15:28:32.270Z,16.97
2018-04-26T15:30:59.762Z,16.61
2018-04-26T15:33:27.268Z,18.17
2018-04-26T15:35:54.791Z,17.75
2018-04-26T15:38:22.270Z,16.61
2018-04-26T15:40:49.785Z,16.01
2018-04-26T15:43:17.422Z,14.99
2018-04-26T15:45:44.908Z,17.14
2018-04-26T15:48:12.375Z,17.22
2018-04-26T15:50:54.746Z,15.90
2018-04-26T15:53:34.182Z,17.21
2018-04-26T15:56:16.811Z,18.84
2018-04-26T16:02:15.425Z,16.38
2018-04-26T16:04:54.663Z,16.78
2018-04-26T16:07:49.580Z,16.52
2018-04-26T16:10:29.000Z,17.20
2018-04-26T16:13:14.216Z,16.18
2018-04-26T16:15:59.264Z,16.92
2018-04-26T16:18:43.753Z,15.94
2018-04-26T16:21:28.889Z,15.84
2018-04-26T16:27:43.037Z,16.06
2018-04-26T16:30:22.953Z,16.88
2018-04-26T16:33:05.261Z,16.96
2018-04-26T16:35:44.598Z,16.27
2018-04-26T16:38:23.937Z,16.28
2018-04-26T16:40:51.543Z,17.12
2018-04-26T16:43:19.056Z,17.29
2018-04-26T16:45:46.712Z,17.46
2018-04-26T16:48:14.342Z,16.67
2018-04-26T16:50:42.043Z,17.74
2018-04-26T16:53:09.558Z,18.31
2018-04-26T16:55:37.079Z,19.67
2018-04-26T16:58:04.627Z,21.19
2018-04-26T17:00:32.140Z,22.65
2018-04-26T17:02:59.717Z,21.77
2018-04-26T17:05:27.250Z,22.71
2018-04-26T17:07:54.733Z,23.64
2018-04-26T17:10:22.235Z,23.99
2018-04-26T17:12:49.754Z,24.74
2018-04-26T17:15:17.341Z,22.57
2018-04-26T17:17:44.879Z,21.81
2018-04-26T17:20:12.370Z,22.47
2018-04-26T17:22:40.113Z,23.76
2018-04-26T17:25:07.583Z,25.78
2018-04-26T17:27:35.095Z,26.51
2018-04-26T17:30:02.678Z,27.20
2018-04-26T17:32:30.260Z,27.49
2018-04-26T17:34:58.846Z,29.02
2018-04-26T17:37:26.352Z,29.13
2018-04-26T17:39:53.854Z,29.19
2018-04-26T17:42:21.535Z,29.21
2018-04-26T17:44:49.159Z,29.96
2018-04-26T17:47:16.733Z,30.32
2018-04-26T17:49:44.216Z,30.86
2018-04-26T17:52:11.748Z,30.49
2018-04-26T17:54:39.341Z,32.28
2018-04-26T17:57:06.845Z,31.23
2018-04-26T17:59:34.352Z,31.96
2018-04-26T18:02:01.833Z,32.18
2018-04-26T18:04:29.347Z,32.73
2018-04-26T18:06:56.872Z,32.56
2018-04-26T18:09:24.377Z,32.56
2018-04-26T18:11:51.919Z,33.00
2018-04-26T18:14:19.423Z,32.56
2018-04-26T18:16:49.345Z,32.55
2018-04-26T18:19:16.857Z,32.89
2018-04-26T18:21:44.399Z,33.44
2018-04-26T18:24:11.886Z,33.59
2018-04-26T18:26:39.391Z,34.40
2018-04-26T18:29:11.833Z,33.92
2018-04-26T18:31:43.320Z,34.02
2018-04-26T18:34:17.162Z,34.27
2018-04-26T18:36:46.815Z,34.79
2018-04-26T18:39:14.297Z,35.30
2018-04-26T18:41:41.783Z,35.19
2018-04-26T18:44:09.288Z,35.35
2018-04-26T18:46:36.802Z,35.18
2018-04-26T18:49:04.302Z,35.58
2018-04-26T18:51:31.795Z,35.66
2018-04-26T18:53:59.462Z,35.21
2018-04-26T18:56:26.993Z,35.74
2018-04-26T18:58:54.486Z,35.74
2018-04-26T19:01:22.876Z,36.22
2018-04-26T19:04:10.383Z,35.49
2018-04-26T19:09:41.819Z,35.54
2018-04-26T19:12:10.012Z,35.44
2018-04-26T19:14:37.495Z,36.12
2018-04-26T19:17:04.997Z,36.01
2018-04-26T19:19:32.484Z,37.45
2018-04-26T19:22:00.161Z,36.31
2018-04-26T19:24:27.842Z,36.34
2018-04-26T19:26:55.352Z,37.02
2018-04-26T19:29:22.866Z,36.76
2018-04-26T19:31:50.449Z,37.41
2018-04-26T19:34:17.946Z,37.85
2018-04-26T19:36:45.514Z,37.85
2018-04-26T19:39:13.010Z,38.45
2018-04-26T19:41:40.493Z,37.81
2018-04-26T19:44:08.005Z,38.65
2018-04-26T19:46:35.522Z,37.94
2018-04-26T19:49:03.043Z,37.56
2018-04-26T19:51:30.513Z,37.41
2018-04-26T19:53:58.014Z,37.79
2018-04-26T19:56:25.503Z,37.91
2018-04-26T19:58:53.106Z,38.11
2018-04-26T20:01:20.765Z,37.95
2018-04-26T20:03:48.241Z,37.68
2018-04-26T20:06:15.759Z,37.65
2018-04-26T20:08:43.437Z,38.39
2018-04-26T20:11:10.934Z,39.58
2018-04-26T20:13:38.487Z,40.67
2018-04-26T20:16:05.976Z,40.90
2018-04-26T20:18:33.491Z,41.57
2018-04-26T20:21:01.051Z,42.51
2018-04-26T20:23:28.651Z,42.59
2018-04-26T20:25:56.665Z,42.91
2018-04-26T20:28:24.397Z,42.98
2018-04-26T20:30:51.922Z,42.78
2018-04-26T20:33:19.514Z,42.87
2018-04-26T20:35:47.048Z,43.36
2018-04-26T20:38:14.527Z,43.74
2018-04-26T20:40:42.105Z,43.67
2018-04-26T20:43:09.612Z,43.17
2018-04-26T20:45:37.143Z,42.88
2018-04-26T20:48:06.162Z,42.68
2018-04-26T20:50:33.794Z,43.10
2018-04-26T20:53:01.277Z,42.49
2018-04-26T20:55:28.763Z,42.57
2018-04-26T20:57:56.263Z,42.79
2018-04-26T21:00:25.985Z,42.77
2018-04-26T21:02:53.536Z,43.07
2018-04-26T21:05:21.166Z,42.73
2018-04-26T21:07:48.762Z,42.85
2018-04-26T21:10:16.307Z,43.03
2018-04-26T21:12:45.471Z,42.73
2018-04-26T21:15:13.224Z,42.64
2018-04-26T21:17:45.198Z,42.40
2018-04-26T21:20:13.192Z,41.04
2018-04-26T21:22:40.812Z,40.88
2018-04-26T21:25:08.398Z,40.36
2018-04-26T21:27:35.968Z,40.02
2018-04-26T21:30:03.538Z,40.85
2018-04-26T21:32:31.107Z,41.04
2018-04-26T21:34:58.721Z,42.63
2018-04-26T21:37:26.351Z,43.62
2018-04-26T21:39:53.877Z,45.09
2018-04-26T21:42:22.018Z,46.65
2018-04-26T21:44:49.604Z,47.89
2018-04-26T21:47:17.130Z,48.68
2018-04-26T21:49:44.094Z,49.66
2018-04-26T21:52:17.318Z,50.49
2018-04-26T21:54:50.584Z,53.02
2018-04-26T21:57:23.700Z,52.36
2018-04-26T21:59:57.289Z,52.47
2018-04-26T22:02:24.339Z,53.46
2018-04-26T22:07:53.761Z,53.12
2018-04-26T22:10:21.327Z,53.36
2018-04-26T22:12:48.922Z,54.00
2018-04-26T22:15:16.470Z,54.45
2018-04-26T22:17:44.026Z,55.20
2018-04-26T22:20:11.567Z,55.09
2018-04-26T22:22:39.124Z,55.42
2018-04-26T22:25:06.686Z,55.59
2018-04-26T22:27:34.343Z,55.68
2018-04-26T22:30:01.918Z,55.63
2018-04-26T22:32:29.485Z,56.30
2018-04-26T22:34:56.993Z,56.48
2018-04-26T22:37:24.635Z,56.91
2018-04-26T22:39:52.523Z,57.18
2018-04-26T22:42:20.055Z,57.67
2018-04-26T22:44:47.726Z,58.23
2018-04-26T22:47:15.277Z,58.46
2018-04-26T22:49:42.851Z,58.71
2018-04-26T22:52:11.006Z,58.58
2018-04-26T22:54:39.514Z,58.96
2018-04-26T22:57:07.077Z,58.97
2018-04-26T22:59:34.596Z,59.60
2018-04-26T23:02:02.148Z,60.15
2018-04-26T23:04:29.898Z,60.63
2018-04-26T23:06:57.537Z,60.72
2018-04-26T23:09:25.076Z,61.48
2018-04-26T23:11:52.640Z,62.19
2018-04-26T23:14:20.213Z,62.18
2018-04-26T23:16:47.797Z,62.02
2018-04-26T23:19:15.354Z,62.67
2018-04-26T23:21:42.898Z,62.88
2018-04-26T23:24:10.524Z,62.99
2018-04-26T23:26:38.198Z,63.04
2018-04-26T23:29:05.755Z,63.15
2018-04-26T23:31:33.344Z,63.04
2018-04-26T23:34:00.876Z,63.12
2018-04-26T23:36:28.440Z,63.18
2018-04-26T23:38:55.981Z,63.45
2018-04-26T23:41:23.562Z,63.47
2018-04-26T23:43:51.116Z,63.81
2018-04-26T23:46:18.670Z,64.29
2018-04-26T23:48:46.210Z,64.40
2018-04-26T23:51:13.779Z,64.28
2018-04-26T23:53:41.332Z,64.26
2018-04-26T23:56:08.876Z,64.32
2018-04-26T23:58:36.441Z,64.36
